createdAt,value
2023-02-08T00:01:43.592Z,95475.63
2023-02-08T00:06:45.144Z,95468.91
2023-02-08T00:11:48.106Z,95464.97
2023-02-08T00:16:49.679Z,95457.91
2023-02-08T00:21:51.335Z,95443.34
2023-02-08T00:26:54.238Z,95438.50
2023-02-08T00:31:55.864Z,95437.28
2023-02-08T00:36:57.415Z,95441.09
2023-02-08T00:42:00.350Z,95431.25
2023-02-08T00:47:02.021Z,95431.97
2023-02-08T00:52:03.541Z,95436.94
2023-02-08T00:57:07.750Z,95423.38
2023-02-08T01:02:09.400Z,95424.28
2023-02-08T01:07:11.144Z,95424.97
2023-02-08T01:12:14.003Z,95430.00
2023-02-08T01:17:15.540Z,95426.47
2023-02-08T01:22:17.070Z,95431.53
2023-02-08T01:27:19.981Z,95423.75
2023-02-08T01:32:21.570Z,95430.00
2023-02-08T01:37:23.076Z,95422.81
2023-02-08T01:42:25.936Z,95409.16
2023-02-08T01:47:27.702Z,95413.38
2023-02-08T01:52:29.367Z,95412.91
2023-02-08T01:57:32.737Z,95405.59
2023-02-08T02:02:36.173Z,95395.00
2023-02-08T02:07:38.566Z,95386.44
2023-02-08T02:12:42.021Z,95397.78
2023-02-08T02:17:43.829Z,95391.31
2023-02-08T02:23:23.032Z,95389.66
2023-02-08T02:29:03.534Z,95390.34
2023-02-08T02:34:10.160Z,95398.47
2023-02-08T02:39:20.537Z,95397.25
2023-02-08T02:50:02.367Z,95391.06
2023-02-08T02:55:09.671Z,95382.53
2023-02-08T03:00:19.626Z,95377.00
2023-02-08T03:05:22.714Z,95378.88
2023-02-08T03:10:50.419Z,95365.28
2023-02-08T03:16:02.448Z,95372.84
2023-02-08T03:21:10.035Z,95365.56
2023-02-08T03:26:19.197Z,95379.88
2023-02-08T03:31:31.024Z,95377.50
2023-02-08T03:36:40.574Z,95370.19
2023-02-08T03:41:46.341Z,95369.97
2023-02-08T03:46:52.248Z,95368.81
2023-02-08T03:51:58.026Z,95374.44
2023-02-08T03:57:06.830Z,95372.44
2023-02-08T04:02:13.688Z,95357.75
2023-02-08T04:07:18.235Z,95365.41
2023-02-08T04:12:19.884Z,95364.94
2023-02-08T04:17:21.426Z,95360.75
2023-02-08T04:22:24.301Z,95358.09
2023-02-08T04:27:25.970Z,95353.25
2023-02-08T04:32:33.115Z,95349.47
2023-02-08T04:37:36.000Z,95342.34
2023-02-08T04:42:37.544Z,95343.44
2023-02-08T04:47:39.121Z,95341.22
2023-02-08T04:52:42.205Z,95333.84
2023-02-08T04:57:43.818Z,95335.78
2023-02-08T05:02:45.508Z,95326.84
2023-02-08T05:07:48.943Z,95325.78
2023-02-08T05:12:50.790Z,95323.69
2023-02-08T05:17:52.372Z,95323.97
2023-02-08T05:22:55.234Z,95330.75
2023-02-08T05:27:56.797Z,95333.66
2023-02-08T05:32:58.387Z,95322.22
2023-02-08T05:38:01.294Z,95331.13
2023-02-08T05:43:02.892Z,95339.03
2023-02-08T05:48:04.553Z,95350.47
2023-02-08T05:53:07.717Z,95359.50
2023-02-08T05:58:09.317Z,95361.06
2023-02-08T06:03:11.164Z,95356.84
2023-02-08T06:08:14.228Z,95359.25
2023-02-08T06:13:15.866Z,95364.56
2023-02-08T06:18:17.545Z,95356.78
2023-02-08T06:23:20.653Z,95358.19
2023-02-08T06:28:22.369Z,95352.09
2023-02-08T06:33:23.978Z,95351.44
2023-02-08T06:38:27.007Z,95357.97
2023-02-08T06:43:28.566Z,95365.22
2023-02-08T06:48:30.448Z,95358.78
2023-02-08T06:53:33.520Z,95359.66
2023-02-08T06:58:35.098Z,95360.50
2023-02-08T07:03:36.626Z,95354.31
2023-02-08T07:08:39.650Z,95353.38
2023-02-08T07:13:41.669Z,95346.31
2023-02-08T07:18:43.742Z,95349.88
2023-02-08T07:23:46.705Z,95354.34
2023-02-08T07:28:48.295Z,95366.41
2023-02-08T07:33:49.937Z,95368.03
2023-02-08T07:38:52.874Z,95366.03
2023-02-08T07:43:54.500Z,95372.63
2023-02-08T07:48:56.074Z,95380.41
2023-02-08T07:53:59.028Z,95381.16
2023-02-08T07:59:00.832Z,95381.38
2023-02-08T08:04:02.390Z,95379.38
2023-02-08T08:09:05.334Z,95387.56
2023-02-08T08:14:06.913Z,95377.81
2023-02-08T08:19:08.496Z,95378.56
2023-02-08T08:24:11.419Z,95387.25
2023-02-08T08:29:13.129Z,95387.66
2023-02-08T08:34:14.626Z,95378.78
2023-02-08T08:39:17.472Z,95382.06
2023-02-08T08:44:19.383Z,95376.88
2023-02-08T08:49:20.927Z,95377.34
2023-02-08T08:54:24.013Z,95377.78
2023-02-08T08:59:25.636Z,95372.63
2023-02-08T09:04:27.171Z,95371.19
2023-02-08T09:09:30.103Z,95356.38
2023-02-08T09:14:31.662Z,95363.00
2023-02-08T09:19:33.208Z,95370.63
2023-02-08T09:24:36.152Z,95357.44
2023-02-08T09:29:37.653Z,95358.66
2023-02-08T09:34:39.134Z,95358.19
2023-02-08T09:39:42.110Z,95361.66
2023-02-08T09:44:59.297Z,95352.63
2023-02-08T09:50:05.164Z,95343.84
2023-02-08T09:55:19.663Z,95347.41
2023-02-08T10:00:27.421Z,95346.13
2023-02-08T10:05:31.293Z,95354.56
2023-02-08T10:10:47.221Z,95357.75
2023-02-08T10:15:53.291Z,95343.97
2023-02-08T10:21:16.310Z,95346.50
2023-02-08T10:26:31.430Z,95348.88
2023-02-08T10:31:50.736Z,95346.06
2023-02-08T10:36:52.838Z,95353.97
2023-02-08T10:41:56.094Z,95349.44
2023-02-08T10:47:13.372Z,95335.09
2023-02-08T10:52:14.909Z,95321.75
2023-02-08T10:57:23.503Z,95322.06
2023-02-08T11:02:28.837Z,95321.03
2023-02-08T11:07:31.302Z,95319.78
2023-02-08T11:12:34.481Z,95320.97
2023-02-08T11:17:36.006Z,95306.72
2023-02-08T11:22:37.755Z,95298.81
2023-02-08T11:27:48.732Z,95305.88
2023-02-08T11:33:27.963Z,95292.28
2023-02-08T11:38:33.324Z,95293.66
2023-02-08T11:43:36.158Z,95300.22
2023-02-08T11:48:44.434Z,95287.75
2023-02-08T11:53:48.863Z,95270.63
2023-02-08T11:59:02.244Z,95263.25
2023-02-08T12:04:06.621Z,95262.75
2023-02-08T12:09:17.797Z,95249.03
2023-02-08T12:14:33.938Z,95250.25
2023-02-08T12:20:09.154Z,95244.72
2023-02-08T12:25:24.611Z,95219.38
2023-02-08T12:30:32.586Z,95229.50
2023-02-08T12:36:05.319Z,95220.38
2023-02-08T12:41:18.038Z,95209.72
2023-02-08T12:46:43.995Z,95209.63
2023-02-08T12:51:53.337Z,95202.03
2023-02-08T12:57:02.366Z,95202.75
2023-02-08T13:02:13.326Z,95205.19
2023-02-08T13:07:20.163Z,95191.31
2023-02-08T13:12:28.661Z,95195.16
2023-02-08T13:17:42.050Z,95189.75
2023-02-08T13:22:43.562Z,95189.88
2023-02-08T13:27:46.600Z,95192.84
2023-02-08T13:32:50.481Z,95190.72
2023-02-08T13:37:55.889Z,95183.09
2023-02-08T13:43:02.246Z,95177.69
2023-02-08T13:48:06.056Z,95182.63
2023-02-08T13:53:08.476Z,95176.56
2023-02-08T13:58:43.380Z,95172.66
2023-02-08T14:04:29.929Z,95164.22
2023-02-08T14:09:44.514Z,95173.09
2023-02-08T14:15:05.479Z,95170.28
2023-02-08T14:20:19.133Z,95177.38
2023-02-08T14:25:23.673Z,95172.13
2023-02-08T14:30:28.614Z,95171.22
2023-02-08T14:35:33.890Z,95173.72
2023-02-08T14:40:49.410Z,95184.78
2023-02-08T14:45:52.946Z,95189.50
2023-02-08T14:51:15.519Z,95178.88
2023-02-08T14:56:22.463Z,95185.72
2023-02-08T15:01:44.057Z,95185.91
2023-02-08T15:07:19.690Z,95180.25
2023-02-08T15:12:26.417Z,95169.66
2023-02-08T15:17:33.569Z,95171.91
2023-02-08T15:22:38.476Z,95166.75
2023-02-08T15:27:46.900Z,95183.97
2023-02-08T15:32:48.519Z,95175.06
2023-02-08T15:37:52.293Z,95169.69
2023-02-08T15:42:54.026Z,95168.34
2023-02-08T15:47:56.317Z,95171.50
2023-02-08T15:53:01.466Z,95169.84
2023-02-08T15:58:06.752Z,95167.88
2023-02-08T16:03:17.261Z,95169.41
2023-02-08T16:08:24.063Z,95156.09
2023-02-08T16:13:28.692Z,95157.41
2023-02-08T16:18:43.968Z,95171.75
2023-02-08T16:23:50.774Z,95168.78
2023-02-08T16:28:55.916Z,95172.78
2023-02-08T16:34:00.247Z,95177.56
2023-02-08T16:39:23.379Z,95185.28
2023-02-08T16:44:26.956Z,95187.63
2023-02-08T16:49:28.636Z,95180.72
2023-02-08T16:54:31.554Z,95177.50
2023-02-08T16:59:33.141Z,95180.56
2023-02-08T17:04:34.761Z,95187.34
2023-02-08T17:09:37.600Z,95190.22
2023-02-08T17:14:39.129Z,95188.81
2023-02-08T17:19:40.650Z,95196.09
2023-02-08T17:24:43.495Z,95200.06
2023-02-08T17:29:45.121Z,95193.56
2023-02-08T17:34:46.744Z,95212.59
2023-02-08T17:39:53.366Z,95206.22
2023-02-08T17:44:54.888Z,95216.41
2023-02-08T17:49:57.132Z,95217.34
2023-02-08T17:54:59.997Z,95212.06
2023-02-08T18:00:02.839Z,95217.84
2023-02-08T18:05:04.910Z,95213.94
2023-02-08T18:10:09.222Z,95205.66
2023-02-08T18:15:13.582Z,95200.56
2023-02-08T18:20:16.309Z,95190.56
2023-02-08T18:25:19.366Z,95191.31
2023-02-08T18:30:20.982Z,95197.22
2023-02-08T18:35:22.677Z,95184.38
2023-02-08T18:40:25.593Z,95198.31
2023-02-08T18:45:27.166Z,95192.88
2023-02-08T18:50:28.694Z,95182.03
2023-02-08T18:55:31.676Z,95180.91
2023-02-08T19:00:33.423Z,95171.88
2023-02-08T19:05:37.119Z,95173.47
2023-02-08T19:10:41.365Z,95177.03
2023-02-08T19:15:43.203Z,95171.47
2023-02-08T19:20:44.845Z,95166.09
2023-02-08T19:25:47.787Z,95156.78
2023-02-08T19:30:49.402Z,95153.34
2023-02-08T19:35:51.009Z,95163.28
2023-02-08T19:40:54.927Z,95161.63
2023-02-08T19:45:56.633Z,95165.75
2023-02-08T19:50:59.706Z,95164.63
2023-02-08T19:56:04.792Z,95164.91
2023-02-08T20:01:07.300Z,95154.38
2023-02-08T20:06:14.185Z,95156.28
2023-02-08T20:11:20.568Z,95151.91
2023-02-08T20:16:23.182Z,95143.84
2023-02-08T20:21:24.846Z,95139.75
2023-02-08T20:26:28.514Z,95148.50
2023-02-08T20:31:32.022Z,95143.94
2023-02-08T20:36:35.623Z,95148.47
2023-02-08T20:41:38.918Z,95148.47
2023-02-08T20:46:40.833Z,95140.44
2023-02-08T20:51:42.482Z,95144.41
2023-02-08T20:56:45.336Z,95143.09
2023-02-08T21:01:53.049Z,95152.03
2023-02-08T21:06:54.577Z,95149.41
2023-02-08T21:11:57.501Z,95150.56
2023-02-08T21:16:59.086Z,95159.50
2023-02-08T21:22:01.757Z,95157.41
2023-02-08T21:27:04.665Z,95154.69
2023-02-08T21:32:06.341Z,95155.88
2023-02-08T21:37:07.906Z,95153.75
2023-02-08T21:42:10.826Z,95148.66
2023-02-08T21:47:12.386Z,95128.31
2023-02-08T21:52:14.108Z,95137.06
2023-02-08T21:57:19.817Z,95125.22
2023-02-08T22:02:24.020Z,95117.84
2023-02-08T22:07:26.484Z,95123.28
2023-02-08T22:12:29.409Z,95118.84
2023-02-08T22:17:30.993Z,95112.47
2023-02-08T22:22:32.680Z,95110.47
2023-02-08T22:27:35.591Z,95107.97
2023-02-08T22:32:39.348Z,95112.38
2023-02-08T22:37:40.962Z,95116.84
2023-02-08T22:42:43.829Z,95124.34
2023-02-08T22:47:46.219Z,95123.94
2023-02-08T22:52:47.805Z,95125.41
2023-02-08T22:57:50.736Z,95123.38
2023-02-08T23:02:52.329Z,95117.66
2023-02-08T23:07:53.947Z,95118.44
2023-02-08T23:12:56.851Z,95112.31
2023-02-08T23:17:58.577Z,95111.97
2023-02-08T23:23:00.209Z,95108.31
2023-02-08T23:28:03.212Z,95109.81
2023-02-08T23:33:04.749Z,95107.13
2023-02-08T23:38:06.391Z,95101.47
2023-02-08T23:43:09.363Z,95093.28
2023-02-08T23:48:10.962Z,95088.78
2023-02-08T23:53:12.483Z,95085.28
2023-02-08T23:58:15.376Z,95081.66
